x

Central Aleutians 230nm Sw Dutch Harbor (46072) Wave Buoy

10:50 - Sat 25th Apr 2015 All times are UTC.

  • Sig Wave height 17.1ft
  • Peak Period 12s
  • Average Period 8s
  • Wind
    29mph, 36mph gusts
  • Sea Temp 41°f
  • Luft Temp 36°f
  • Sea Pressure 1016.9mb

More Historic Weather Station data

Upgrade to MSW Pro to gain access to the past 30 days of data for over 8000 Wavebouys and Weather Stations around the globe.

Join Pro

Comparision Forecast

View Surf forecast
   
Sa 04/25 10:50 17ft 12s 8s 29 36 mph 1016.9mb 41f 36f
9:50 17.5ft 12s 8s 29 36 mph 1016.2mb 41f 38f
8:50 15.5ft 11s 8s 31 40 mph 1015.6mb 41f 38f
7:50 15.5ft 9s 8s 34 40 mph 1014.5mb 41f 38f
6:50 14.5ft 11s 7s 34 43 mph 1013.6mb 41f 38f
5:50 15.5ft 10s 7s 34 43 mph 1012.4mb 41f 38f
4:50 15ft 10s 7s 34 43 mph 1011.5mb 41f 38f
3:50 15ft 9s 7s 34 43 mph 1010.4mb 41f 38f
2:50 16ft 12s 7s 31 38 mph 1009.4mb 41f 39f
1:50 15ft 7s 7s 34 40 mph 1008.5mb 41f 39f
12:50 13ft 11s 7s 29 38 mph 1007.7mb 41f 38f
Fr 04/24 11:50 12ft 13s 7s 29 36 mph 1006.8mb 41f 38f
10:50 11ft 13s 7s 27 31 mph 1006.1mb 41f 40f
9:50 12ft 13s 7s 27 36 mph 1005.3mb 41f 39f
8:50 11ft 12s 7s 25 31 mph 1004.6mb 41f 38f
7:50 12ft 13s 8s 20 25 mph 1003.7mb 41f 38f
6:50 11ft 14s 8s 20 25 mph 1002.8mb 41f 38f
5:50 12ft 13s 8s 20 25 mph 1001.8mb 41f 39f
4:50 13ft 13s 8s 18 22 mph 1001.2mb 41f 37f
3:50 14ft 14s 8s 20 25 mph 1000.3mb 41f 38f
2:50 14.5ft 14s 8s 20 25 mph 999.7mb 41f 39f
1:50 15ft 14s 8s 20 25 mph 999.3mb 41f 39f
12:50 16.5ft 13s 8s 20 25 mph 999mb 41f 39f
11:50 16.5ft 12s 9s 18 22 mph 998.7mb 41f 39f
10:50 16ft 14s 9s 20 27 mph 998.3mb 41f 40f
9:50 15.5ft 13s 8s 20 25 mph 998.2mb 41f 40f
8:50 17.5ft 14s 9s 20 27 mph 997.9mb 41f 40f
7:50 16.5ft 13s 9s 22 27 mph 997.4mb 41f 40f
6:50 16.5ft 13s 9s 22 29 mph 996.9mb 41f 40f
5:50 15.5ft 13s 9s 25 31 mph 996.2mb 41f 41f
4:50 16.5ft 13s 8s 25 34 mph 995.7mb 41f 41f
3:50 16.5ft 11s 8s 27 34 mph 995mb 41f 41f
2:50 18.5ft 12s 8s 27 34 mph 994.5mb 41f 41f
1:50 20ft 12s 8s 29 38 mph 994.1mb 41f 41f
12:50 20ft 12s 8s 31 40 mph 993.8mb 41f 40f
Do 04/23 11:50 18ft 11s 8s 31 40 mph 994mb 41f 40f
10:50 17.5ft 11s 8s 27 34 mph 994.5mb 41f 38f
9:50 15ft 10s 7s 29 34 mph 994.9mb 41f 40f
8:50 16ft 11s 8s 29 36 mph 995.2mb 41f 40f
7:50 15ft 11s 8s 29 36 mph 995.4mb 41f 39f
6:50 15.5ft 12s 8s 27 34 mph 995.8mb 40f 39f
5:50 16.5ft 10s 8s 29 38 mph 995.7mb 40f 40f
4:50 16.5ft 11s 8s 27 34 mph 995.7mb 40f 39f
3:50 15ft 11s 7s 27 36 mph 996.1mb 40f 39f
2:50 15.5ft 10s 7s 34 45 mph 996.1mb 40f 40f
1:50 15.5ft 10s 7s 29 36 mph 996.9mb 40f 40f
12:50 15ft 11s 7s 29 36 mph 997.3mb 40f 40f
11:50 16ft 11s 7s 31 38 mph 997.7mb 40f 40f
10:50 17.5ft 11s 7s 29 38 mph 998.3mb 40f 40f
9:50 17ft 11s 8s 29 38 mph 999mb 41f 40f
8:50 15.5ft 11s 7s 31 36 mph 999.4mb 41f 40f
7:50 14ft 10s 7s 29 36 mph 1000mb 41f 40f
6:50 14ft 11s 8s 27 31 mph 1000.3mb 41f 40f
5:50 14.5ft 11s 8s 27 34 mph 1000.6mb 41f 40f
4:50 14ft 10s 8s 25 31 mph 1000.9mb 41f 40f
3:50 16ft 12s 8s 25 31 mph 1001.2mb 41f 40f
2:50 14.5ft 11s 8s 25 31 mph 1001.4mb 41f 40f
1:50 15.5ft 10s 8s 25 31 mph 1001.3mb 41f 41f
12:50 18ft 11s 8s 25 31 mph 1001.6mb 41f 40f
Mi 04/22 11:50 16.5ft 10s 7s 25 29 mph 1001.3mb 41f 41f
10:50 16.5ft 10s 8s 27 31 mph 1001.3mb 40f 40f
9:50 16.5ft 10s 7s 29 36 mph 1001.6mb 41f 40f
8:50 16.5ft 9s 7s 31 40 mph 1002mb 41f 40f
7:50 14ft 8s 7s 36 43 mph 1002.3mb 41f 39f
6:50 15ft 8s 7s 36 45 mph 1003.2mb 40f 38f
5:50 13ft 8s 6s 34 43 mph 1003.9mb 40f 38f
4:50 12ft 8s 6s 34 43 mph 1004.6mb 40f 37f
3:50 10ft 8s 6s 34 40 mph 1006.2mb 40f 37f
2:50 9.5ft 6s 5s 34 43 mph 1007.5mb 40f 37f
1:50 8.5ft 6s 5s 34 38 mph 1008.5mb 40f 38f
12:50 8ft 5s 5s 29 34 mph 1009.8mb 40f 39f
11:50 8ft 5s 5s 29 34 mph 1011mb 40f 38f
10:50 8ft 8s 5s 25 31 mph 1012.2mb 40f 39f
9:50 7ft 8s 6s 25 31 mph 1013.2mb 40f 38f
8:50 6ft 9s 5s 22 27 mph 1013.8mb 40f 39f
7:50 6ft 8s 6s 18 22 mph 1014.6mb 40f 39f
6:50 5ft 7s 6s 16 18 mph 1014.8mb 40f 38f
5:50 5ft 8s 6s 13 18 mph 1014.8mb 41f 38f
4:50 6ft 10s 6s 13 16 mph 1015mb 41f 38f
3:50 6ft 10s 6s 13 18 mph 1014.7mb 41f 38f
2:50 6ft 10s 6s 16 20 mph 1014.8mb 41f 38f
1:50 6ft 9s 6s 16 22 mph 1014.8mb 41f 38f
12:50 6.5ft 8s 6s 13 18 mph 1014.7mb 41f 37f
Di 04/21 11:50 6.5ft 7s 6s 11 13 mph 1014.1mb 41f 37f
10:50 7ft 7s 6s 13 16 mph 1014mb 40f 37f
9:50 7ft 7s 6s 13 16 mph 1013.4mb 40f 37f
8:50 6.5ft 7s 6s 13 16 mph 1012.7mb 40f 35f
7:50 6ft 8s 6s 16 20 mph 1012.1mb 40f 37f
6:50 5ft 6s 6s 16 20 mph 1011.7mb 40f 36f
5:50 6ft 7s 5s 18 20 mph 1011.2mb 40f 37f
4:50 5.5ft 7s 5s 18 22 mph 1010.5mb 40f 37f
3:50 5ft 9s 5s 20 25 mph 1009.9mb 40f 37f
2:50 5ft 7s 5s 13 16 mph 1009.7mb 40f 36f
1:50 6ft 6s 5s 18 20 mph 1009.6mb 40f 36f
12:50 6ft 8s 5s 13 18 mph 1009.8mb 40f 36f